createdAt,value
2019-03-10T00:02:00.303Z,18.53
2019-03-10T00:04:30.641Z,16.40
2019-03-10T00:07:01.079Z,13.03
2019-03-10T00:09:31.420Z,15.77
2019-03-10T00:12:02.234Z,17.30
2019-03-10T00:14:32.867Z,17.90
2019-03-10T00:17:03.168Z,18.30
2019-03-10T00:19:33.480Z,11.13
2019-03-10T00:22:03.978Z,15.07
2019-03-10T00:24:34.321Z,14.53
2019-03-10T00:27:04.723Z,12.07
2019-03-10T00:29:35.692Z,11.87
2019-03-10T00:32:05.960Z,12.53
2019-03-10T00:34:36.228Z,11.17
2019-03-10T00:37:06.930Z,19.60
2019-03-10T00:40:38.062Z,16.87
2019-03-10T00:44:16.673Z,13.93
2019-03-10T00:48:04.192Z,12.47
2019-03-10T00:51:19.856Z,15.23
2019-03-10T00:53:50.465Z,12.03
2019-03-10T00:56:20.736Z,14.53
2019-03-10T00:58:51.262Z,10.23
2019-03-10T01:01:21.552Z,16.90
2019-03-10T01:03:51.669Z,16.07
2019-03-10T01:06:21.897Z,13.97
2019-03-10T01:08:52.236Z,9.10
2019-03-10T01:11:23.074Z,15.83
2019-03-10T01:13:53.441Z,15.40
2019-03-10T01:16:23.779Z,11.17
2019-03-10T01:18:59.134Z,12.57
2019-03-10T01:21:30.222Z,15.87
2019-03-10T01:24:00.809Z,17.70
2019-03-10T01:26:31.224Z,14.77
2019-03-10T01:29:01.765Z,18.40
2019-03-10T01:32:03.013Z,14.47
2019-03-10T01:35:06.301Z,16.77
2019-03-10T01:37:37.109Z,11.20
2019-03-10T01:40:07.662Z,23.77
2019-03-10T01:42:38.319Z,14.57
2019-03-10T01:45:10.582Z,15.13
2019-03-10T01:47:40.996Z,11.57
2019-03-10T01:50:13.347Z,15.60
2019-03-10T01:52:43.707Z,16.30
2019-03-10T01:55:14.014Z,15.37
2019-03-10T01:57:44.242Z,14.37
2019-03-10T02:00:17.288Z,13.97
2019-03-10T02:02:47.350Z,15.93
2019-03-10T02:05:17.696Z,15.73
2019-03-10T02:07:48.025Z,15.10
2019-03-10T02:10:18.275Z,17.80
2019-03-10T02:12:48.435Z,14.77
2019-03-10T02:15:19.021Z,10.73
2019-03-10T02:17:49.264Z,12.33
2019-03-10T02:20:19.784Z,15.07
2019-03-10T02:22:50.091Z,13.77
2019-03-10T02:25:20.674Z,13.87
2019-03-10T02:27:51.402Z,17.37
2019-03-10T02:30:21.547Z,15.50
2019-03-10T02:32:51.961Z,14.17
2019-03-10T02:35:22.146Z,19.27
2019-03-10T02:37:52.381Z,17.37
2019-03-10T02:40:22.858Z,19.83
2019-03-10T02:42:53.425Z,13.90
2019-03-10T02:45:23.934Z,17.47
2019-03-10T02:47:54.140Z,14.17
2019-03-10T02:50:24.479Z,15.63
2019-03-10T02:52:54.781Z,16.63
2019-03-10T02:55:25.036Z,16.07
2019-03-10T02:57:55.396Z,18.27
2019-03-10T03:00:25.695Z,14.50
2019-03-10T03:02:55.859Z,15.57
2019-03-10T03:05:26.066Z,16.30
2019-03-10T03:07:56.590Z,13.77
2019-03-10T03:10:27.058Z,15.30
2019-03-10T03:12:57.617Z,19.23
2019-03-10T03:15:27.902Z,16.37
2019-03-10T03:17:57.984Z,15.47
2019-03-10T03:20:28.435Z,14.77
2019-03-10T03:22:58.745Z,12.67
2019-03-10T03:25:29.122Z,19.00
2019-03-10T03:27:59.545Z,16.07
2019-03-10T03:30:30.024Z,13.07
2019-03-10T03:33:00.277Z,15.87
2019-03-10T03:35:53.590Z,13.07
2019-03-10T03:38:58.218Z,13.57
2019-03-10T03:41:28.791Z,15.53
2019-03-10T03:43:59.343Z,16.93
2019-03-10T03:46:30.278Z,15.17
2019-03-10T03:49:00.710Z,18.13
2019-03-10T03:51:30.951Z,17.00
2019-03-10T03:54:01.568Z,14.23
2019-03-10T03:56:32.032Z,16.50
2019-03-10T03:59:02.019Z,20.63
2019-03-10T04:01:40.072Z,13.03
2019-03-10T04:04:10.420Z,14.07
2019-03-10T04:06:41.129Z,12.93
2019-03-10T04:09:11.285Z,18.93
2019-03-10T04:11:41.402Z,16.67
2019-03-10T04:14:11.688Z,14.03
2019-03-10T04:16:41.968Z,19.83
2019-03-10T04:19:12.461Z,13.73
2019-03-10T04:21:42.723Z,17.10
2019-03-10T04:24:13.019Z,21.40
2019-03-10T04:26:43.648Z,15.50
2019-03-10T04:29:14.194Z,16.47
2019-03-10T04:31:44.528Z,19.20
2019-03-10T04:34:14.761Z,16.40
2019-03-10T04:36:44.950Z,23.10
2019-03-10T04:39:15.124Z,17.33
2019-03-10T04:41:45.331Z,18.63
2019-03-10T04:44:15.799Z,17.87
2019-03-10T04:46:46.212Z,18.73
2019-03-10T04:49:16.667Z,23.23
2019-03-10T04:51:46.904Z,19.90
2019-03-10T04:54:19.309Z,21.93
2019-03-10T04:57:04.819Z,19.37
2019-03-10T04:59:34.997Z,18.37
2019-03-10T05:02:05.284Z,12.80
2019-03-10T05:04:35.605Z,20.70
2019-03-10T05:07:05.905Z,15.83
2019-03-10T05:09:36.025Z,17.47
2019-03-10T05:12:06.719Z,18.20
2019-03-10T05:14:36.900Z,18.17
2019-03-10T05:17:07.191Z,20.00
2019-03-10T05:19:37.608Z,23.87
2019-03-10T05:22:07.883Z,20.30
2019-03-10T05:24:38.108Z,19.03
2019-03-10T05:27:08.479Z,18.80
2019-03-10T05:29:38.784Z,22.43
2019-03-10T05:32:09.216Z,17.73
2019-03-10T05:34:39.764Z,17.37
2019-03-10T05:37:10.270Z,17.87
2019-03-10T05:39:40.366Z,24.60
2019-03-10T05:42:10.546Z,19.03
2019-03-10T05:44:40.607Z,22.80
2019-03-10T05:47:10.896Z,19.90
2019-03-10T05:49:41.135Z,17.83
2019-03-10T05:52:11.746Z,18.57
2019-03-10T05:54:42.502Z,15.70
2019-03-10T05:57:12.749Z,25.93
2019-03-10T05:59:42.955Z,18.93
2019-03-10T06:02:13.104Z,25.00
2019-03-10T06:04:43.417Z,21.83
2019-03-10T06:07:13.844Z,17.40
2019-03-10T06:09:44.259Z,14.47
2019-03-10T06:12:14.738Z,15.73
2019-03-10T06:14:45.474Z,13.23
2019-03-10T06:17:15.644Z,19.83
2019-03-10T06:19:46.707Z,12.93
2019-03-10T06:22:16.959Z,13.60
2019-03-10T06:24:47.364Z,11.07
2019-03-10T06:27:17.889Z,15.57
2019-03-10T06:29:48.208Z,13.73
2019-03-10T06:32:18.286Z,11.47
2019-03-10T06:34:48.687Z,10.33
2019-03-10T06:37:19.213Z,12.60
2019-03-10T06:39:49.417Z,10.97
2019-03-10T06:42:20.246Z,12.77
2019-03-10T06:44:50.724Z,9.43
2019-03-10T06:47:20.840Z,7.77
2019-03-10T06:49:50.866Z,12.03
2019-03-10T06:52:21.165Z,10.63
2019-03-10T06:54:51.684Z,9.93
2019-03-10T06:57:22.123Z,10.67
2019-03-10T06:59:52.736Z,9.20
2019-03-10T07:02:23.211Z,11.57
2019-03-10T07:04:53.546Z,11.67
2019-03-10T07:07:23.712Z,13.70
2019-03-10T07:09:54.042Z,11.97
2019-03-10T07:12:24.358Z,14.47
2019-03-10T07:14:54.611Z,9.30
2019-03-10T07:17:24.945Z,13.67
2019-03-10T07:19:55.203Z,11.97
2019-03-10T07:22:25.645Z,12.70
2019-03-10T07:24:56.356Z,10.53
2019-03-10T07:27:32.378Z,14.93
2019-03-10T07:30:09.043Z,11.80
2019-03-10T07:32:45.019Z,15.70
2019-03-10T07:35:33.404Z,18.60
2019-03-10T07:38:13.788Z,14.00
2019-03-10T07:40:52.537Z,14.00
2019-03-10T07:43:42.624Z,7.37
2019-03-10T07:46:29.389Z,9.20
2019-03-10T07:49:37.208Z,9.97
2019-03-10T07:52:44.648Z,7.10
2019-03-10T07:55:25.028Z,7.33
2019-03-10T07:58:06.662Z,9.37
2019-03-10T08:00:44.827Z,8.93
2019-03-10T08:03:34.063Z,8.67
2019-03-10T08:06:10.915Z,8.20
2019-03-10T08:08:55.529Z,8.83
2019-03-10T08:11:34.463Z,11.77
2019-03-10T08:14:23.387Z,12.07
2019-03-10T08:17:15.515Z,9.83
2019-03-10T08:19:57.171Z,13.57
2019-03-10T08:22:46.045Z,8.67
2019-03-10T08:25:34.048Z,8.03
2019-03-10T08:28:48.299Z,10.43
2019-03-10T08:31:29.625Z,8.27
2019-03-10T08:34:21.657Z,6.27
2019-03-10T08:37:13.919Z,7.13
2019-03-10T08:39:59.691Z,5.90
2019-03-10T08:42:49.577Z,8.90
2019-03-10T08:45:37.816Z,9.90
2019-03-10T08:48:14.159Z,6.40
2019-03-10T08:51:03.457Z,7.53
2019-03-10T08:53:42.718Z,5.57
2019-03-10T08:56:31.330Z,9.33
2019-03-10T08:59:21.670Z,4.13
2019-03-10T09:02:08.880Z,6.07
2019-03-10T09:05:01.900Z,8.23
2019-03-10T09:07:48.789Z,7.97
2019-03-10T09:10:44.883Z,9.93
2019-03-10T09:13:27.212Z,9.13
2019-03-10T09:16:13.674Z,8.93
2019-03-10T09:19:08.615Z,6.93
2019-03-10T09:22:09.750Z,6.13
2019-03-10T09:25:04.901Z,4.87
2019-03-10T09:27:55.069Z,5.60
2019-03-10T09:30:37.874Z,5.03
2019-03-10T09:33:19.986Z,5.47
2019-03-10T09:36:08.409Z,5.27
2019-03-10T09:38:57.797Z,6.90
2019-03-10T09:42:05.938Z,4.43
2019-03-10T09:44:53.316Z,7.57
2019-03-10T09:47:45.249Z,5.07
2019-03-10T09:50:37.289Z,5.40
2019-03-10T09:53:17.181Z,6.83
2019-03-10T09:56:06.420Z,6.53
2019-03-10T09:58:44.021Z,8.50
2019-03-10T10:01:36.185Z,7.53
2019-03-10T10:04:15.512Z,7.00
2019-03-10T10:07:02.944Z,6.10
2019-03-10T10:10:00.943Z,7.77
2019-03-10T10:12:53.574Z,5.70
2019-03-10T10:15:48.802Z,5.30
2019-03-10T10:18:36.938Z,5.97
2019-03-10T10:21:29.368Z,6.70
2019-03-10T10:24:17.666Z,8.13
2019-03-10T10:27:03.788Z,6.87
2019-03-10T10:29:42.940Z,6.80
2019-03-10T10:32:27.876Z,6.13
2019-03-10T10:35:17.122Z,5.90
2019-03-10T10:38:06.665Z,7.13
2019-03-10T10:40:58.861Z,5.87
2019-03-10T10:43:38.034Z,6.60
2019-03-10T10:46:28.230Z,7.23
2019-03-10T10:49:39.740Z,6.73
2019-03-10T10:52:30.974Z,5.43
2019-03-10T10:55:18.892Z,6.83
2019-03-10T10:57:59.244Z,5.17
2019-03-10T11:00:54.313Z,5.10
2019-03-10T11:03:55.455Z,14.57
2019-03-10T11:06:53.767Z,7.60
2019-03-10T11:09:34.256Z,5.77
2019-03-10T11:12:12.297Z,6.23
2019-03-10T11:15:09.603Z,8.33
2019-03-10T11:18:09.626Z,7.50
2019-03-10T11:20:58.133Z,7.60
2019-03-10T11:23:48.176Z,8.37
2019-03-10T11:26:48.074Z,9.33
2019-03-10T11:29:36.269Z,8.53
2019-03-10T11:32:24.122Z,8.60
2019-03-10T11:35:12.091Z,9.47
2019-03-10T11:38:10.767Z,8.63
2019-03-10T11:40:58.861Z,10.67
2019-03-10T11:44:00.059Z,8.43
2019-03-10T11:46:49.351Z,10.73
2019-03-10T11:49:34.605Z,12.50
2019-03-10T11:52:29.688Z,11.17
2019-03-10T11:55:06.255Z,10.20
2019-03-10T11:57:47.019Z,10.20
2019-03-10T12:00:26.730Z,9.77
2019-03-10T12:03:16.022Z,9.93
2019-03-10T12:06:05.926Z,7.70
2019-03-10T12:08:44.980Z,7.73
2019-03-10T12:11:15.445Z,8.17
2019-03-10T12:13:45.717Z,7.03
2019-03-10T12:16:15.971Z,6.00
2019-03-10T12:18:46.575Z,6.57
2019-03-10T12:21:16.827Z,6.60
2019-03-10T12:23:47.605Z,8.23
2019-03-10T12:26:18.446Z,7.77
2019-03-10T12:28:49.781Z,22.90
2019-03-10T12:31:20.182Z,7.10
2019-03-10T12:33:52.267Z,7.07
2019-03-10T12:36:22.918Z,5.87
2019-03-10T12:38:53.518Z,5.90
2019-03-10T12:41:24.380Z,5.20
2019-03-10T12:43:54.761Z,5.40
2019-03-10T12:46:25.339Z,7.33
2019-03-10T12:48:55.996Z,5.73
2019-03-10T12:51:26.410Z,4.90
2019-03-10T12:53:56.914Z,5.03
2019-03-10T12:56:27.771Z,5.37
2019-03-10T12:58:58.651Z,6.83
2019-03-10T13:01:29.227Z,5.87
2019-03-10T13:03:59.836Z,6.23
2019-03-10T13:06:31.281Z,6.70
2019-03-10T13:09:01.649Z,6.77
2019-03-10T13:11:32.653Z,6.60
2019-03-10T13:14:02.955Z,5.27
2019-03-10T13:16:33.367Z,5.43
2019-03-10T13:19:08.110Z,5.07
2019-03-10T13:21:42.022Z,6.67
2019-03-10T13:24:13.186Z,6.97
2019-03-10T13:26:44.225Z,6.07
2019-03-10T13:29:14.835Z,5.50
2019-03-10T13:31:46.126Z,5.67
2019-03-10T13:34:17.457Z,5.03
2019-03-10T13:36:47.890Z,5.13
2019-03-10T13:39:18.460Z,5.30
2019-03-10T13:41:49.818Z,5.23
2019-03-10T13:44:20.054Z,5.23
2019-03-10T13:46:50.260Z,6.07
2019-03-10T13:49:20.914Z,5.60
2019-03-10T13:51:51.492Z,7.30
2019-03-10T13:54:21.769Z,6.10
2019-03-10T13:56:52.106Z,10.00
2019-03-10T13:59:22.633Z,5.73
2019-03-10T14:01:53.987Z,6.40
2019-03-10T14:04:24.719Z,4.90
2019-03-10T14:06:54.932Z,5.23
2019-03-10T14:09:25.475Z,7.13
2019-03-10T14:11:55.901Z,5.50
2019-03-10T14:14:26.235Z,6.77
2019-03-10T14:16:56.494Z,6.77
2019-03-10T14:19:27.696Z,7.43
2019-03-10T14:21:57.912Z,8.73
2019-03-10T14:24:28.759Z,7.63
2019-03-10T14:26:59.182Z,8.07
2019-03-10T14:29:29.872Z,7.87
2019-03-10T14:32:00.389Z,9.83
2019-03-10T14:34:30.807Z,7.27
2019-03-10T14:37:01.082Z,5.83
2019-03-10T14:39:32.341Z,5.90
2019-03-10T14:42:02.865Z,5.10
2019-03-10T14:44:35.010Z,5.77
2019-03-10T14:47:06.987Z,5.30
2019-03-10T14:49:37.536Z,4.20
2019-03-10T14:52:08.943Z,5.30
2019-03-10T14:54:40.436Z,4.40
2019-03-10T14:57:11.166Z,4.70
2019-03-10T14:59:41.348Z,4.80
2019-03-10T15:02:11.909Z,9.47
2019-03-10T15:04:42.535Z,4.93
2019-03-10T15:07:13.371Z,5.83
2019-03-10T15:09:43.835Z,5.37
2019-03-10T15:12:14.179Z,3.07
2019-03-10T15:14:44.577Z,4.50
2019-03-10T15:17:14.807Z,3.07
2019-03-10T15:19:45.112Z,3.27
2019-03-10T15:22:15.707Z,4.47
2019-03-10T15:24:46.590Z,4.30
2019-03-10T15:27:23.339Z,2.20
2019-03-10T15:29:48.861Z,2.33
2019-03-10T15:32:19.112Z,1.80
2019-03-10T15:34:49.735Z,2.57
2019-03-10T15:37:20.003Z,2.53
2019-03-10T15:39:50.545Z,1.73
2019-03-10T15:42:20.867Z,2.07
2019-03-10T15:44:51.232Z,2.13
2019-03-10T15:47:21.493Z,1.10
2019-03-10T15:49:52.697Z,0.97
2019-03-10T15:52:22.950Z,0.70
2019-03-10T15:54:53.264Z,0.97
2019-03-10T15:57:23.824Z,0.70
2019-03-10T15:59:54.352Z,0.70
2019-03-10T16:02:24.918Z,1.10
2019-03-10T16:04:56.486Z,0.80
2019-03-10T16:07:27.383Z,1.30
2019-03-10T16:09:57.906Z,1.20
2019-03-10T16:12:28.245Z,1.77
2019-03-10T16:14:58.383Z,1.30
2019-03-10T16:17:28.942Z,1.43
2019-03-10T16:19:59.205Z,1.50
2019-03-10T16:22:29.718Z,1.60
2019-03-10T16:25:00.483Z,1.37
2019-03-10T16:27:30.646Z,1.50
2019-03-10T16:30:02.186Z,3.43
2019-03-10T16:32:32.620Z,6.57
2019-03-10T16:35:08.104Z,8.13
2019-03-10T16:37:38.689Z,7.37
2019-03-10T16:40:11.664Z,4.67
2019-03-10T16:42:42.198Z,4.03
2019-03-10T16:45:16.236Z,2.80
2019-03-10T16:47:46.935Z,2.30
2019-03-10T16:50:18.396Z,3.10
2019-03-10T16:52:48.691Z,3.13
2019-03-10T16:55:19.011Z,3.60
2019-03-10T16:57:49.307Z,5.43
2019-03-10T17:00:20.890Z,1.93
2019-03-10T17:02:51.206Z,3.10
2019-03-10T17:05:21.527Z,2.10
2019-03-10T17:07:52.228Z,1.13
2019-03-10T17:10:22.532Z,3.43
2019-03-10T17:12:52.884Z,1.20
2019-03-10T17:15:23.170Z,1.43
2019-03-10T17:17:53.444Z,1.63
2019-03-10T17:20:23.710Z,2.47
2019-03-10T17:22:54.070Z,2.60
2019-03-10T17:25:24.490Z,2.60
2019-03-10T17:27:55.268Z,2.60
2019-03-10T17:30:25.747Z,2.27
2019-03-10T17:32:56.502Z,8.50
2019-03-10T17:35:27.088Z,6.93
2019-03-10T17:37:57.367Z,7.83
2019-03-10T17:40:27.652Z,16.03
2019-03-10T17:42:57.883Z,10.07
2019-03-10T17:45:28.215Z,9.00
2019-03-10T17:47:58.631Z,8.53
2019-03-10T17:50:29.235Z,7.77
2019-03-10T17:52:59.512Z,6.47
2019-03-10T17:55:30.037Z,6.07
2019-03-10T17:58:00.651Z,6.47
2019-03-10T18:00:33.219Z,5.23
2019-03-10T18:03:03.830Z,5.33
2019-03-10T18:05:34.702Z,5.10
2019-03-10T18:08:06.292Z,4.40
2019-03-10T18:10:36.578Z,7.60
2019-03-10T18:13:07.151Z,4.57
2019-03-10T18:15:37.455Z,4.83
2019-03-10T18:18:07.768Z,3.90
2019-03-10T18:20:41.229Z,4.40
2019-03-10T18:23:11.670Z,4.40
2019-03-10T18:25:42.002Z,5.23
2019-03-10T18:28:12.459Z,5.23
2019-03-10T18:30:43.015Z,5.00
2019-03-10T18:33:16.325Z,5.40
2019-03-10T18:35:46.656Z,5.63
2019-03-10T18:38:21.267Z,4.83
2019-03-10T18:40:51.700Z,4.83
2019-03-10T18:43:22.021Z,7.87
2019-03-10T18:45:52.403Z,5.03
2019-03-10T18:48:22.777Z,5.90
2019-03-10T18:50:54.235Z,6.20
2019-03-10T18:53:24.437Z,6.13
2019-03-10T18:55:54.727Z,5.23
2019-03-10T18:58:26.455Z,4.90
2019-03-10T19:00:57.062Z,4.60
2019-03-10T19:03:27.253Z,5.23
2019-03-10T19:05:58.314Z,5.87
2019-03-10T19:08:28.885Z,5.30
2019-03-10T19:10:59.035Z,5.10
2019-03-10T19:13:29.220Z,4.47
2019-03-10T19:15:59.531Z,5.17
2019-03-10T19:18:32.871Z,5.20
2019-03-10T19:21:03.452Z,5.43
2019-03-10T19:23:33.905Z,5.13
2019-03-10T19:26:07.441Z,5.97
2019-03-10T19:28:37.952Z,5.00
2019-03-10T19:31:08.214Z,5.20
2019-03-10T19:33:38.788Z,5.80
2019-03-10T19:36:09.236Z,5.57
2019-03-10T19:38:39.628Z,5.50
2019-03-10T19:41:09.906Z,5.07
2019-03-10T19:43:40.569Z,5.10
2019-03-10T19:46:12.867Z,5.47
2019-03-10T19:48:43.181Z,4.83
2019-03-10T19:51:13.474Z,3.90
2019-03-10T19:53:43.801Z,4.63
2019-03-10T19:56:14.384Z,4.33
2019-03-10T19:58:44.754Z,3.40
2019-03-10T20:01:15.299Z,3.53
2019-03-10T20:03:45.698Z,3.60
2019-03-10T20:06:16.032Z,3.87
2019-03-10T20:08:46.474Z,4.50
2019-03-10T20:11:17.257Z,4.60
2019-03-10T20:13:48.396Z,3.70
2019-03-10T20:16:19.047Z,3.80
2019-03-10T20:18:49.287Z,4.70
2019-03-10T20:21:19.559Z,4.70
2019-03-10T20:23:50.192Z,4.67
2019-03-10T20:26:20.441Z,4.57
2019-03-10T20:28:50.743Z,5.13
2019-03-10T20:31:21.069Z,5.47
2019-03-10T20:33:52.470Z,5.80
2019-03-10T20:36:23.282Z,5.77
2019-03-10T20:38:53.723Z,4.23
2019-03-10T20:41:23.914Z,4.83
2019-03-10T20:43:54.086Z,4.93
2019-03-10T20:46:24.386Z,5.03
2019-03-10T20:48:55.011Z,5.07
2019-03-10T20:51:25.293Z,4.37
2019-03-10T20:53:55.510Z,4.70
2019-03-10T20:56:26.141Z,4.80
2019-03-10T20:58:56.611Z,4.53
2019-03-10T21:01:27.127Z,4.73
2019-03-10T21:03:57.620Z,5.40
2019-03-10T21:06:28.155Z,3.63
2019-03-10T21:08:58.435Z,4.53
2019-03-10T21:11:29.022Z,4.27
2019-03-10T21:13:59.419Z,4.40
2019-03-10T21:16:30.967Z,3.27
2019-03-10T21:19:02.132Z,3.30
2019-03-10T21:21:32.441Z,3.20
2019-03-10T21:24:03.261Z,2.90
2019-03-10T21:26:33.546Z,3.50
2019-03-10T21:29:04.242Z,3.03
2019-03-10T21:31:34.580Z,4.83
2019-03-10T21:34:04.785Z,2.40
2019-03-10T21:36:35.173Z,2.43
2019-03-10T21:39:07.788Z,2.30
2019-03-10T21:41:38.045Z,2.20
2019-03-10T21:44:08.264Z,2.57
2019-03-10T21:46:38.603Z,2.30
2019-03-10T21:49:12.300Z,3.10
2019-03-10T21:51:42.513Z,2.83
2019-03-10T21:54:13.043Z,3.03
2019-03-10T21:56:43.816Z,3.50
2019-03-10T21:59:14.154Z,4.90
2019-03-10T22:01:44.687Z,4.93
2019-03-10T22:04:14.888Z,4.73
2019-03-10T22:06:45.374Z,5.10
2019-03-10T22:09:16.204Z,4.20
2019-03-10T22:11:47.061Z,6.20
2019-03-10T22:14:18.657Z,4.03
2019-03-10T22:16:49.874Z,4.30
2019-03-10T22:19:22.968Z,4.43
2019-03-10T22:21:52.985Z,4.80
2019-03-10T22:24:23.201Z,5.40
2019-03-10T22:26:53.666Z,6.23
2019-03-10T22:29:24.387Z,6.40
2019-03-10T22:31:54.966Z,4.87
2019-03-10T22:34:25.519Z,5.03
2019-03-10T22:36:55.860Z,4.77
2019-03-10T22:39:26.083Z,3.87
2019-03-10T22:41:56.317Z,4.03
2019-03-10T22:44:26.933Z,5.13
2019-03-10T22:46:57.223Z,8.20
2019-03-10T22:49:27.573Z,6.03
2019-03-10T22:51:57.916Z,8.07
2019-03-10T22:54:28.215Z,5.97
2019-03-10T22:56:58.437Z,7.23
2019-03-10T22:59:28.909Z,5.27
2019-03-10T23:01:59.213Z,5.60
2019-03-10T23:04:29.490Z,6.43
2019-03-10T23:06:59.856Z,7.47
2019-03-10T23:09:30.119Z,5.60
2019-03-10T23:12:00.305Z,5.00
2019-03-10T23:14:30.563Z,5.13
2019-03-10T23:17:00.776Z,5.70
2019-03-10T23:19:31.305Z,4.07
2019-03-10T23:22:01.936Z,4.07
2019-03-10T23:24:38.102Z,7.30
2019-03-10T23:27:08.429Z,7.93
2019-03-10T23:29:38.927Z,7.23
2019-03-10T23:32:09.148Z,5.53
2019-03-10T23:34:40.113Z,8.40
2019-03-10T23:37:10.389Z,5.90
2019-03-10T23:39:40.734Z,7.03
2019-03-10T23:42:11.444Z,9.10
2019-03-10T23:44:41.905Z,10.23
2019-03-10T23:47:12.154Z,6.53
2019-03-10T23:49:42.715Z,8.57
2019-03-10T23:52:13.001Z,11.57
2019-03-10T23:54:43.746Z,13.37
2019-03-10T23:57:13.927Z,9.43
2019-03-10T23:59:44.068Z,9.57
